createdAt,value
2022-12-09T00:01:23.192Z,98869.34
2022-12-09T00:03:50.928Z,98865.31
2022-12-09T00:06:29.537Z,98874.28
2022-12-09T00:08:58.067Z,98865.59
2022-12-09T00:11:28.410Z,98862.34
2022-12-09T00:13:57.375Z,98869.31
2022-12-09T00:16:26.025Z,98868.81
2022-12-09T00:18:57.603Z,98857.63
2022-12-09T00:21:30.133Z,98856.38
2022-12-09T00:23:59.312Z,98859.13
2022-12-09T00:26:27.705Z,98857.91
2022-12-09T00:28:56.146Z,98854.66
2022-12-09T00:31:26.028Z,98859.13
2022-12-09T00:33:56.478Z,98850.19
2022-12-09T00:36:24.742Z,98849.44
2022-12-09T00:38:54.018Z,98850.94
2022-12-09T00:41:21.540Z,98843.22
2022-12-09T00:43:51.500Z,98843.22
2022-12-09T00:46:19.115Z,98823.31
2022-12-09T00:48:47.143Z,98819.81
2022-12-09T00:51:23.684Z,98817.81
2022-12-09T00:53:54.879Z,98814.38
2022-12-09T00:56:26.432Z,98838.75
2022-12-09T00:58:54.512Z,98845.94
2022-12-09T01:01:24.501Z,98842.44
2022-12-09T01:03:52.099Z,98847.19
2022-12-09T01:06:22.649Z,98843.97
2022-12-09T01:08:50.241Z,98855.41
2022-12-09T01:11:26.666Z,98860.88
2022-12-09T01:13:57.925Z,98853.41
2022-12-09T01:16:27.535Z,98845.19
2022-12-09T01:18:57.543Z,98849.44
2022-12-09T01:21:25.030Z,98857.66
2022-12-09T01:23:53.035Z,98854.16
2022-12-09T01:26:21.625Z,98857.91
2022-12-09T01:28:53.497Z,98854.69
2022-12-09T01:31:24.344Z,98841.50
2022-12-09T01:33:52.600Z,98841.50
2022-12-09T01:36:23.279Z,98836.75
2022-12-09T01:38:51.160Z,98831.28
2022-12-09T01:41:20.679Z,98833.28
2022-12-09T01:44:26.084Z,98819.06
2022-12-09T01:46:56.733Z,98821.56
2022-12-09T01:49:28.861Z,98819.56
2022-12-09T01:52:11.083Z,98834.97
2022-12-09T01:54:41.866Z,98833.78
2022-12-09T01:57:09.178Z,98842.22
2022-12-09T01:59:37.247Z,98827.78
2022-12-09T02:02:08.131Z,98831.00
2022-12-09T02:04:41.418Z,98834.25
2022-12-09T02:07:10.725Z,98839.22
2022-12-09T02:09:40.146Z,98821.81
2022-12-09T02:12:12.072Z,98818.31
2022-12-09T02:14:55.613Z,98810.59
2022-12-09T02:17:27.960Z,98813.84
2022-12-09T02:20:39.136Z,98810.84
2022-12-09T02:23:35.190Z,98818.28
2022-12-09T02:26:30.579Z,98826.28
2022-12-09T02:29:24.130Z,98821.28
2022-12-09T02:32:01.439Z,98821.03
2022-12-09T02:34:34.955Z,98826.50
2022-12-09T02:37:16.373Z,98819.03
2022-12-09T02:40:21.401Z,98826.50
2022-12-09T02:42:51.919Z,98833.44
2022-12-09T02:45:22.106Z,98833.94
2022-12-09T02:47:54.940Z,98839.69
2022-12-09T02:50:26.040Z,98834.72
2022-12-09T02:52:56.214Z,98833.72
2022-12-09T02:55:23.648Z,98832.97
2022-12-09T02:57:56.946Z,98829.72
2022-12-09T03:00:27.908Z,98817.75
2022-12-09T03:02:59.708Z,98829.97
2022-12-09T03:05:34.197Z,98823.25
2022-12-09T03:08:10.600Z,98809.03
2022-12-09T03:10:44.116Z,98813.03
2022-12-09T03:13:22.716Z,98804.59
2022-12-09T03:15:57.765Z,98813.53
2022-12-09T03:18:29.236Z,98803.81
2022-12-09T03:20:56.737Z,98805.56
2022-12-09T03:23:27.770Z,98800.13
2022-12-09T03:25:56.200Z,98794.38
2022-12-09T03:28:30.705Z,98798.88
2022-12-09T03:31:02.334Z,98799.09
2022-12-09T03:33:32.398Z,98794.41
2022-12-09T03:36:04.093Z,98788.94
2022-12-09T03:38:36.779Z,98787.19
2022-12-09T03:41:14.146Z,98791.91
2022-12-09T03:43:48.179Z,98792.13
2022-12-09T03:46:15.403Z,98785.69
2022-12-09T03:48:42.798Z,98780.44
2022-12-09T03:51:17.676Z,98790.41
2022-12-09T03:53:49.216Z,98777.47
2022-12-09T03:56:27.380Z,98779.19
2022-12-09T03:58:57.839Z,98787.66
2022-12-09T04:01:31.208Z,98773.72
2022-12-09T04:03:58.710Z,98769.50
2022-12-09T04:06:26.590Z,98764.53
2022-12-09T04:09:01.929Z,98770.50
2022-12-09T04:11:29.650Z,98773.47
2022-12-09T04:13:59.675Z,98773.22
2022-12-09T04:16:29.450Z,98777.44
2022-12-09T04:18:56.949Z,98775.72
2022-12-09T04:21:24.023Z,98766.97
2022-12-09T04:23:51.579Z,98759.03
2022-12-09T04:26:21.915Z,98754.06
2022-12-09T04:28:50.622Z,98749.84
2022-12-09T04:31:19.037Z,98749.56
2022-12-09T04:33:47.923Z,98741.38
2022-12-09T04:36:18.027Z,98733.41
2022-12-09T04:38:46.585Z,98745.38
2022-12-09T04:41:16.446Z,98740.88
2022-12-09T04:43:44.096Z,98746.09
2022-12-09T04:46:14.411Z,98742.66
2022-12-09T04:48:41.949Z,98742.41
2022-12-09T04:51:11.191Z,98751.81
2022-12-09T04:53:40.077Z,98755.81
2022-12-09T04:56:21.593Z,98748.84
2022-12-09T04:58:50.747Z,98749.06
2022-12-09T05:01:29.846Z,98733.94
2022-12-09T05:03:59.369Z,98741.63
2022-12-09T05:06:27.537Z,98737.88
2022-12-09T05:08:55.824Z,98715.53
2022-12-09T05:11:24.447Z,98703.06
2022-12-09T05:13:53.953Z,98703.56
2022-12-09T05:16:21.563Z,98695.88
2022-12-09T05:18:50.004Z,98694.84
2022-12-09T05:21:20.230Z,98683.66
2022-12-09T05:23:49.075Z,98680.69
2022-12-09T05:26:20.846Z,98663.50
2022-12-09T05:28:49.501Z,98657.53
2022-12-09T05:31:19.950Z,98642.84
2022-12-09T05:33:48.757Z,98649.34
2022-12-09T05:36:19.069Z,98658.81
2022-12-09T05:38:48.425Z,98657.28
2022-12-09T05:41:16.569Z,98656.53
2022-12-09T05:43:44.669Z,98654.06
2022-12-09T05:46:13.968Z,98654.31
2022-12-09T05:48:41.671Z,98647.59
2022-12-09T05:51:14.782Z,98636.16
2022-12-09T05:53:42.753Z,98624.94
2022-12-09T05:56:10.049Z,98647.09
2022-12-09T05:58:37.553Z,98659.03
2022-12-09T06:01:07.277Z,98659.78
2022-12-09T06:03:36.546Z,98662.25
2022-12-09T06:06:12.596Z,98661.03
2022-12-09T06:08:41.332Z,98661.75
2022-12-09T06:11:17.318Z,98653.06
2022-12-09T06:13:46.515Z,98651.09
2022-12-09T06:16:14.711Z,98637.16
2022-12-09T06:18:42.671Z,98641.34
2022-12-09T06:21:12.746Z,98637.63
2022-12-09T06:23:41.435Z,98639.63
2022-12-09T06:26:17.144Z,98648.59
2022-12-09T06:28:45.091Z,98647.84
2022-12-09T06:31:13.051Z,98646.34
2022-12-09T06:33:58.584Z,98652.06
2022-12-09T06:36:29.033Z,98656.03
2022-12-09T06:39:00.406Z,98648.34
2022-12-09T06:41:32.855Z,98634.91
2022-12-09T06:44:02.803Z,98627.44
2022-12-09T06:46:32.151Z,98621.72
2022-12-09T06:48:59.587Z,98619.50
2022-12-09T06:51:26.892Z,98620.50
2022-12-09T06:53:55.180Z,98613.00
2022-12-09T06:56:23.198Z,98606.81
2022-12-09T06:58:51.292Z,98611.28
2022-12-09T07:01:21.265Z,98614.75
2022-12-09T07:03:52.327Z,98613.28
2022-12-09T07:06:26.845Z,98610.03
2022-12-09T07:08:59.970Z,98606.56
2022-12-09T07:11:28.249Z,98604.56
2022-12-09T07:13:56.209Z,98607.31
2022-12-09T07:16:23.880Z,98599.34
2022-12-09T07:18:51.932Z,98605.78
2022-12-09T07:21:21.505Z,98612.03
2022-12-09T07:23:49.191Z,98605.53
2022-12-09T07:26:17.668Z,98597.59
2022-12-09T07:28:47.427Z,98605.31
2022-12-09T07:31:34.562Z,98602.34
2022-12-09T07:34:03.218Z,98594.84
2022-12-09T07:36:33.022Z,98590.16
2022-12-09T07:39:07.095Z,98588.63
2022-12-09T07:41:34.535Z,98579.44
2022-12-09T07:44:02.059Z,98582.91
2022-12-09T07:46:29.704Z,98568.75
2022-12-09T07:48:58.591Z,98555.84
2022-12-09T07:51:26.852Z,98555.81
2022-12-09T07:53:54.867Z,98557.56
2022-12-09T07:56:23.216Z,98554.59
2022-12-09T07:58:54.095Z,98556.06
2022-12-09T08:01:26.777Z,98556.56
2022-12-09T08:03:55.724Z,98562.03
2022-12-09T08:06:27.722Z,98564.78
2022-12-09T08:09:01.002Z,98570.50
2022-12-09T08:11:30.994Z,98568.00
2022-12-09T08:14:04.459Z,98561.28
2022-12-09T08:16:36.647Z,98558.56
2022-12-09T08:19:04.484Z,98555.56
2022-12-09T08:21:33.560Z,98557.53
2022-12-09T08:24:07.737Z,98550.56
2022-12-09T08:26:37.496Z,98563.75
2022-12-09T08:29:11.100Z,98561.50
2022-12-09T08:31:42.295Z,98561.75
2022-12-09T08:34:14.409Z,98553.53
2022-12-09T08:36:42.488Z,98552.78
2022-12-09T08:39:11.669Z,98548.03
2022-12-09T08:41:40.232Z,98545.06
2022-12-09T08:44:10.351Z,98546.78
2022-12-09T08:46:40.223Z,98542.56
2022-12-09T08:49:08.676Z,98543.78
2022-12-09T08:51:37.456Z,98542.56
2022-12-09T08:54:07.761Z,98541.03
2022-12-09T08:56:35.399Z,98544.03
2022-12-09T08:59:04.017Z,98537.56
2022-12-09T09:01:34.895Z,98531.06
2022-12-09T09:04:09.333Z,98532.31
2022-12-09T09:06:38.508Z,98527.81
2022-12-09T09:09:07.985Z,98520.06
2022-12-09T09:11:36.443Z,98523.28
2022-12-09T09:14:05.825Z,98522.53
2022-12-09T09:16:35.499Z,98518.59
2022-12-09T09:19:06.091Z,98513.09
2022-12-09T09:21:34.919Z,98510.63
2022-12-09T09:24:03.264Z,98516.13
2022-12-09T09:26:30.446Z,98511.63
2022-12-09T09:28:58.618Z,98493.97
2022-12-09T09:31:28.389Z,98494.47
2022-12-09T09:33:56.051Z,98484.97
2022-12-09T09:36:25.134Z,98472.03
2022-12-09T09:38:55.093Z,98460.28
2022-12-09T09:41:38.597Z,98441.34
2022-12-09T09:44:21.858Z,98441.56
2022-12-09T09:46:51.568Z,98447.78
2022-12-09T09:49:54.576Z,98442.81
2022-12-09T09:52:24.674Z,98435.31
2022-12-09T09:54:53.319Z,98428.81
2022-12-09T09:57:36.745Z,98431.53
2022-12-09T10:00:11.387Z,98425.78
2022-12-09T10:02:58.214Z,98420.25
2022-12-09T10:05:31.693Z,98417.03
2022-12-09T10:08:24.053Z,98403.25
2022-12-09T10:11:09.135Z,98398.78
2022-12-09T10:14:22.155Z,98400.25
2022-12-09T10:16:57.822Z,98389.53
2022-12-09T10:19:33.702Z,98371.09
2022-12-09T10:22:12.795Z,98373.81
2022-12-09T10:25:08.170Z,98362.81
2022-12-09T10:27:49.253Z,98358.28
2022-12-09T10:30:19.102Z,98356.31
2022-12-09T10:32:47.609Z,98357.78
2022-12-09T10:35:17.693Z,98354.03
2022-12-09T10:37:46.072Z,98344.53
2022-12-09T10:40:20.297Z,98348.78
2022-12-09T10:43:06.449Z,98344.53
2022-12-09T10:46:07.857Z,98345.53
2022-12-09T10:48:33.367Z,98344.25
2022-12-09T10:51:06.110Z,98340.44
2022-12-09T10:53:36.027Z,98334.72
2022-12-09T10:56:04.225Z,98329.41
2022-12-09T10:58:32.597Z,98320.63
2022-12-09T11:01:08.732Z,98323.13
2022-12-09T11:03:53.623Z,98320.34
2022-12-09T11:06:31.367Z,98309.53
2022-12-09T11:09:03.243Z,98306.75
2022-12-09T11:11:45.716Z,98303.09
2022-12-09T11:14:23.220Z,98303.34
2022-12-09T11:16:57.267Z,98294.56
2022-12-09T11:19:39.057Z,98294.56
2022-12-09T11:22:39.635Z,98296.53
2022-12-09T11:25:14.029Z,98286.50
2022-12-09T11:27:50.259Z,98286.28
2022-12-09T11:30:23.713Z,98299.66
2022-12-09T11:32:56.683Z,98296.16
2022-12-09T11:35:32.255Z,98297.13
2022-12-09T11:38:04.886Z,98290.06
2022-12-09T11:40:32.751Z,98292.28
2022-12-09T11:42:59.910Z,98283.75
2022-12-09T11:45:37.000Z,98277.69
2022-12-09T11:48:33.960Z,98277.91
2022-12-09T11:51:02.487Z,98278.88
2022-12-09T11:53:31.985Z,98277.53
2022-12-09T11:56:17.782Z,98264.47
2022-12-09T11:58:55.916Z,98270.84
2022-12-09T12:02:01.602Z,98264.38
2022-12-09T12:04:39.251Z,98251.84
2022-12-09T12:07:57.866Z,98250.78
2022-12-09T12:10:34.431Z,98259.84
2022-12-09T12:13:20.597Z,98247.19
2022-12-09T12:16:08.833Z,98246.13
2022-12-09T12:18:56.280Z,98248.34
2022-12-09T12:21:36.209Z,98244.97
2022-12-09T12:24:28.577Z,98243.69
2022-12-09T12:27:19.518Z,98245.16
2022-12-09T12:30:02.183Z,98241.31
2022-12-09T12:32:29.235Z,98242.59
2022-12-09T12:35:02.905Z,98249.84
2022-12-09T12:38:14.687Z,98238.53
2022-12-09T12:40:57.214Z,98228.56
2022-12-09T12:43:49.297Z,98228.88
2022-12-09T12:46:27.542Z,98223.19
2022-12-09T12:49:24.547Z,98218.41
2022-12-09T12:55:48.032Z,98217.59
2022-12-09T12:58:30.954Z,98203.66
2022-12-09T13:01:04.343Z,98197.00
2022-12-09T13:03:40.980Z,98190.00
2022-12-09T13:06:13.763Z,98185.56
2022-12-09T13:08:48.815Z,98184.81
2022-12-09T13:11:27.005Z,98179.03
2022-12-09T13:13:59.177Z,98162.69
2022-12-09T13:16:34.559Z,98160.94
2022-12-09T13:19:11.860Z,98156.97
2022-12-09T13:21:39.505Z,98145.84
2022-12-09T13:24:37.855Z,98146.13
2022-12-09T13:27:25.878Z,98142.16
2022-12-09T13:30:01.440Z,98140.66
2022-12-09T13:33:06.958Z,98142.44
2022-12-09T13:35:43.751Z,98135.16
2022-12-09T13:38:26.174Z,98127.44
2022-12-09T13:40:53.609Z,98130.72
2022-12-09T13:43:28.561Z,98134.94
2022-12-09T13:46:01.565Z,98119.97
2022-12-09T13:48:44.731Z,98118.94
2022-12-09T13:51:13.545Z,98116.47
2022-12-09T13:53:49.496Z,98108.47
2022-12-09T13:56:16.956Z,98110.69
2022-12-09T13:59:21.558Z,98102.25
2022-12-09T14:02:01.531Z,98099.78
2022-12-09T14:04:36.300Z,98097.88
2022-12-09T14:07:42.154Z,98091.13
2022-12-09T14:10:39.214Z,98092.41
2022-12-09T14:13:24.319Z,98090.69
2022-12-09T14:16:18.629Z,98085.94
2022-12-09T14:18:46.116Z,98087.44
2022-12-09T14:21:19.241Z,98092.69
2022-12-09T14:24:08.408Z,98081.28
2022-12-09T14:26:42.069Z,98078.09
2022-12-09T14:29:10.203Z,98074.91
2022-12-09T14:31:49.272Z,98079.66
2022-12-09T14:34:24.446Z,98064.69
2022-12-09T14:37:12.758Z,98075.88
2022-12-09T14:40:07.539Z,98067.94
2022-12-09T14:42:50.671Z,98066.16
2022-12-09T14:45:47.189Z,98057.28
2022-12-09T14:48:21.603Z,98058.75
2022-12-09T14:51:06.785Z,98062.56
2022-12-09T14:53:37.570Z,98062.84
2022-12-09T14:56:05.827Z,98070.56
2022-12-09T14:58:33.284Z,98061.59
2022-12-09T15:01:06.059Z,98058.84
2022-12-09T15:03:39.436Z,98051.38
2022-12-09T15:06:18.061Z,98044.69
2022-12-09T15:08:46.176Z,98033.13
2022-12-09T15:11:35.540Z,98034.16
2022-12-09T15:14:27.966Z,98028.91
2022-12-09T15:16:57.132Z,98038.59
2022-12-09T15:19:59.190Z,98030.38
2022-12-09T15:22:24.944Z,98025.41
2022-12-09T15:24:53.944Z,98031.41
2022-12-09T15:27:25.176Z,98034.16
2022-12-09T15:29:54.474Z,98026.47
2022-12-09T15:32:29.195Z,98030.66
2022-12-09T15:35:12.408Z,98018.00
2022-12-09T15:37:43.888Z,98017.25
2022-12-09T15:40:14.299Z,98010.31
2022-12-09T15:42:46.363Z,98022.97
2022-12-09T15:45:18.637Z,98014.03
2022-12-09T15:47:50.051Z,98015.78
2022-12-09T15:50:48.496Z,98013.81
2022-12-09T15:53:25.546Z,98017.78
2022-12-09T15:56:03.034Z,98009.78
2022-12-09T15:58:38.595Z,98002.53
2022-12-09T16:01:09.350Z,98001.25
2022-12-09T16:03:38.553Z,98006.00
2022-12-09T16:06:10.003Z,98008.75
2022-12-09T16:08:42.085Z,98020.00
2022-12-09T16:11:12.470Z,98016.78
2022-12-09T16:14:07.596Z,98007.56
2022-12-09T16:16:58.564Z,98001.88
2022-12-09T16:19:29.102Z,98004.38
2022-12-09T16:22:19.790Z,97998.59
2022-12-09T16:27:47.002Z,97998.91
2022-12-09T16:30:19.242Z,97996.16
2022-12-09T16:32:51.704Z,98004.91
2022-12-09T16:35:29.468Z,97991.94
2022-12-09T16:38:12.366Z,97994.25
2022-12-09T16:40:49.824Z,97993.00
2022-12-09T16:43:17.632Z,97985.56
2022-12-09T16:45:52.488Z,97988.31
2022-12-09T16:48:22.639Z,97989.72
2022-12-09T16:50:54.543Z,97988.75
2022-12-09T16:53:30.964Z,97981.81
2022-12-09T16:56:01.467Z,97979.91
2022-12-09T16:58:31.689Z,97975.66
2022-12-09T17:01:01.554Z,97981.97
2022-12-09T17:03:40.767Z,97982.72
2022-12-09T17:06:16.217Z,97981.66
2022-12-09T17:08:47.872Z,97981.97
2022-12-09T17:11:22.231Z,97980.91
2022-12-09T17:13:51.806Z,97971.97
2022-12-09T17:16:22.747Z,97972.50
2022-12-09T17:18:51.757Z,97961.59
2022-12-09T17:21:19.941Z,97959.59
2022-12-09T17:23:49.250Z,97958.66
2022-12-09T17:26:21.204Z,97966.63
2022-12-09T17:28:51.168Z,97964.88
2022-12-09T17:31:23.476Z,97964.66
2022-12-09T17:33:55.864Z,97959.69
2022-12-09T17:36:24.159Z,97961.22
2022-12-09T17:38:52.640Z,97956.19
2022-12-09T17:41:24.198Z,97957.66
2022-12-09T17:43:52.062Z,97957.25
2022-12-09T17:46:20.931Z,97961.00
2022-12-09T17:48:48.661Z,97962.72
2022-12-09T17:51:20.074Z,97956.50
2022-12-09T17:53:50.601Z,97960.19
2022-12-09T17:56:24.249Z,97954.50
2022-12-09T17:58:59.860Z,97960.72
2022-12-09T18:01:27.811Z,97961.22
2022-12-09T18:04:06.193Z,97975.38
2022-12-09T18:06:45.258Z,97968.09
2022-12-09T18:09:16.694Z,97954.22
2022-12-09T18:11:45.438Z,97967.81
2022-12-09T18:14:15.854Z,97969.84
2022-12-09T18:16:47.115Z,97966.34
2022-12-09T18:19:16.652Z,97963.06
2022-12-09T18:21:46.345Z,97967.00
2022-12-09T18:24:14.214Z,97974.56
2022-12-09T18:26:42.634Z,97978.78
2022-12-09T18:29:11.795Z,97979.59
2022-12-09T18:31:46.214Z,97982.34
2022-12-09T18:34:14.393Z,97991.75
2022-12-09T18:36:42.356Z,97980.88
2022-12-09T18:39:10.235Z,97979.16
2022-12-09T18:41:38.472Z,97983.38
2022-12-09T18:44:09.475Z,97992.66
2022-12-09T18:46:41.088Z,97995.16
2022-12-09T18:49:16.053Z,97994.13
2022-12-09T18:51:45.317Z,97982.69
2022-12-09T18:54:27.886Z,97993.66
2022-12-09T18:57:02.693Z,97989.97
2022-12-09T18:59:31.687Z,97983.75
2022-12-09T19:02:00.891Z,97993.75
2022-12-09T19:04:30.594Z,97997.66
2022-12-09T19:07:02.053Z,98006.69
2022-12-09T19:09:34.532Z,98004.91
2022-12-09T19:12:47.161Z,98003.91
2022-12-09T19:14:54.267Z,98002.84
2022-12-09T19:17:24.985Z,98000.41
2022-12-09T19:19:56.178Z,98004.13
2022-12-09T19:22:24.449Z,98006.88
2022-12-09T19:24:52.681Z,98010.84
2022-12-09T19:27:20.696Z,98018.53
2022-12-09T19:29:49.617Z,98024.78
2022-12-09T19:32:51.312Z,98013.28
2022-12-09T19:35:10.873Z,98014.78
2022-12-09T19:37:38.749Z,98025.94
2022-12-09T19:40:07.838Z,98032.63
2022-12-09T19:42:37.476Z,98035.88
2022-12-09T19:45:10.572Z,98048.63
2022-12-09T19:47:43.635Z,98057.06
2022-12-09T19:50:11.737Z,98062.31
2022-12-09T19:52:40.813Z,98056.09
2022-12-09T19:55:13.953Z,98056.09
2022-12-09T19:57:44.952Z,98066.56
2022-12-09T20:00:14.213Z,98076.47
2022-12-09T20:02:45.778Z,98076.47
2022-12-09T20:05:14.753Z,98071.50
2022-12-09T20:07:43.674Z,98067.97
2022-12-09T20:10:13.802Z,98062.47
2022-12-09T20:12:41.700Z,98056.53
2022-12-09T20:15:12.669Z,98054.56
2022-12-09T20:17:41.638Z,98053.06
2022-12-09T20:20:10.829Z,98048.31
2022-12-09T20:22:39.806Z,98055.06
2022-12-09T20:25:11.214Z,98063.59
2022-12-09T20:27:39.815Z,98083.00
2022-12-09T20:30:08.552Z,98083.78
2022-12-09T20:32:37.163Z,98071.88
2022-12-09T20:35:09.649Z,98072.91
2022-12-09T20:37:38.539Z,98067.19
2022-12-09T20:40:10.558Z,98075.19
2022-12-09T20:42:38.981Z,98079.16
2022-12-09T20:45:09.321Z,98087.38
2022-12-09T20:47:38.115Z,98092.88
2022-12-09T20:50:07.087Z,98101.16
2022-12-09T20:52:35.685Z,98102.13
2022-12-09T20:55:03.607Z,98103.91
2022-12-09T20:57:32.681Z,98115.59
2022-12-09T21:00:00.724Z,98110.19
2022-12-09T21:02:30.056Z,98106.47
2022-12-09T21:05:01.540Z,98095.75
2022-12-09T21:07:30.175Z,98103.22
2022-12-09T21:10:01.020Z,98101.75
2022-12-09T21:12:29.804Z,98104.06
2022-12-09T21:14:58.119Z,98101.06
2022-12-09T21:17:26.485Z,98103.03
2022-12-09T21:19:56.713Z,98108.31
2022-12-09T21:22:27.137Z,98117.53
2022-12-09T21:24:55.423Z,98116.06
2022-12-09T21:27:26.735Z,98110.88
2022-12-09T21:29:58.182Z,98110.91
2022-12-09T21:32:26.804Z,98118.66
2022-12-09T21:34:58.225Z,98122.66
2022-12-09T21:37:26.013Z,98119.22
2022-12-09T21:39:53.738Z,98129.47
2022-12-09T21:42:21.887Z,98126.00
2022-12-09T21:44:50.212Z,98126.34
2022-12-09T21:47:22.636Z,98127.84
2022-12-09T21:49:50.200Z,98133.81
2022-12-09T21:52:17.664Z,98143.56
2022-12-09T21:54:45.026Z,98142.06
2022-12-09T21:57:12.603Z,98147.59
2022-12-09T21:59:39.846Z,98155.31
2022-12-09T22:02:07.818Z,98173.28
2022-12-09T22:04:35.189Z,98180.50
2022-12-09T22:07:02.929Z,98179.53
2022-12-09T22:09:30.014Z,98178.31
2022-12-09T22:11:57.519Z,98172.81
2022-12-09T22:14:24.663Z,98163.94
2022-12-09T22:16:52.248Z,98173.84
2022-12-09T22:19:22.536Z,98168.38
2022-12-09T22:21:50.505Z,98173.34
2022-12-09T22:24:18.463Z,98179.31
2022-12-09T22:26:46.349Z,98174.63
2022-12-09T22:29:15.581Z,98182.59
2022-12-09T22:31:44.539Z,98184.81
2022-12-09T22:34:14.616Z,98196.28
2022-12-09T22:36:42.172Z,98188.81
2022-12-09T22:39:14.049Z,98201.03
2022-12-09T22:41:43.772Z,98201.31
2022-12-09T22:44:13.560Z,98210.78
2022-12-09T22:46:42.317Z,98210.25
2022-12-09T22:49:14.220Z,98207.59
2022-12-09T22:51:42.670Z,98215.03
2022-12-09T22:54:10.339Z,98220.28
2022-12-09T22:56:39.835Z,98214.34
2022-12-09T22:59:07.303Z,98218.31
2022-12-09T23:01:38.967Z,98214.63
2022-12-09T23:04:08.405Z,98217.81
2022-12-09T23:06:37.726Z,98229.03
2022-12-09T23:09:07.288Z,98231.03
2022-12-09T23:11:35.200Z,98231.03
2022-12-09T23:14:02.654Z,98227.81
2022-12-09T23:16:30.552Z,98234.78
2022-12-09T23:18:59.095Z,98232.06
2022-12-09T23:21:37.696Z,98226.59
2022-12-09T23:24:10.204Z,98225.34
2022-12-09T23:26:42.369Z,98232.06
2022-12-09T23:29:14.358Z,98221.59
2022-12-09T23:31:42.692Z,98233.78
2022-12-09T23:34:15.179Z,98237.78
2022-12-09T23:36:43.971Z,98245.22
2022-12-09T23:39:14.435Z,98234.06
2022-12-09T23:41:43.741Z,98244.97
2022-12-09T23:44:19.151Z,98246.94
2022-12-09T23:46:47.084Z,98248.94
2022-12-09T23:49:14.919Z,98240.00
2022-12-09T23:51:44.123Z,98251.66
2022-12-09T23:54:15.852Z,98247.94
2022-12-09T23:56:48.093Z,98252.41
2022-12-09T23:59:22.760Z,98256.16
